Barnegat Light, NJ (08006)

6:50 PM EST on December 10, 2016 (GMT -0500)
Loveladies | | Change Station

Elev 0 ft 39.74 °N, 74.12 °W | Updated 55 seconds ago

Clear
Clear
34.0 °F
Feels Like 28 °F
N
6.8
Wind Variable Wind from WNW

Today
High -- | Low -- °F
--% Chance of Precip.
Yesterday
High -- | Low -- °F
Precip. -- in
Pressure 30.46 in
Visibility 10.0 miles
Clouds Scattered Clouds 6000 ft
Windchill 28 °F
Dew Point 22 °F
Humidity 60%
Rainfall 0.00 in
Snow Depth Not available.
7:07 AM 4:31 PM
Waxing Gibbous, 87% visible
METAR KMJX 102256Z AUTO 29004KT 10SM SCT060 M01/M08 A3044 RMK AO2 SLP313 T10061083 FZRANO PNO $
Pressure 30.46 in
Visibility 10.0 miles
Clouds Scattered Clouds 6000 ft
Windchill 28 °F
Dew Point 22 °F
Humidity 60%
Rainfall 0.00 in
Snow Depth Not available.
7:07 AM 4:31 PM
Waxing Gibbous, 87% visible
METAR KMJX 102256Z AUTO 29004KT 10SM SCT060 M01/M08 A3044 RMK AO2 SLP313 T10061083 FZRANO PNO $

10-Day Weather Forecast

Almanac

Astronomy

Dec. 10, 2016 Rise Set
Actual Time
Civil Twilight
Nautical Twilight
Astronomical Twilight
Moon
Length of Visible Light
Length of Day
Tomorrow will be .
, % of the Moon is Illuminated

Today's Extremes

State Highs State Lows

Community

WunderPhotos

Upload Photos

1,956,677 photos uploaded!

WunderBlog® & News

Nearby

Air Quality

  Air Quality AQ Index Pollutant
Not available.

Snow Depth

Station Depth Elevation

Earthquake Activity

City Distance Mag. Time & Date
Minimum magnitude displayed is 2.5.

Coastal Water Temperatures

Place Temperature

Stations

Nearby Weather Stations

Station Location Temp. Windchill Dew Point Humidity Wind Precip. Elev Updated Type
                   

Watches & Warnings

There are currently no watches in effect.